Brooks, Canada
Current Conditions -  °F | °C
As of 7:00 PM on Sunday 25 Jan 2015 (Local Time) from CYXH Reporting Station
Scattered Clouds Scattered Clouds  
Wind Chill: 45°   Ceiling: Unl
Heat Index: 45°   Visibility: 15mi
Dew Point: 37°   Wind: 3mph
Humidity: 76%   Direction: 60°ENE
Pressure: 29.89"   Gusts: NA
Location:  50.57°N, 111.9°W
Report Text: CYXH 260200Z 06003KT 15SM SCT270 07/03 A2989 RMK CI3 SLP141
Loading
Personal Weather Stations






























Interactive Weather Map New forecast layout! Learn more

10-Day Weather Forecast

Advertisements
Track Severe Weather on mobile